Red Dog, Alaska
Current Conditions -  °F | °C
As of 6:56 AM on Thursday 30 Oct 2014 (Local Time) from PAWN Reporting Station
Clear Clear  
Wind Chill: -16°   Ceiling: Unl
Heat Index: -4°   Visibility: 10mi
Dew Point: -8°   Wind: 6mph
Humidity: 85%   Direction: 20°NNE
Pressure: 30.03"   Gusts: NA
Location:  68.03°N, 162.9°W
Report Text: PAWN 301456Z AUTO 02005KT 10SM CLR M20/M22 A3003 RMK AO1 52010
Loading
Personal Weather Stations






























Interactive Weather Map
Tropical Storm Tracking
New forecast layout! Learn more

10-Day Weather Forecast

Advertisements
Track Severe Weather on mobile